Time;durP1;ratioP1;P1;durP2;ratioP2;P2;SDS_P1;SDS_P2;PMS_P1;PMS_P2;Temp;Humidity;BMP_temperature;BMP_pressure;BME280_temperature;BME280_humidity;BME280_pressure;Samples;Min_cycle;Max_cycle;Signal;HPM_P1;HPM_P2
2023/08/17 00:01:33;;;;;;;1570.95;999.90;;;27.30;99.90;;;;;;5033134;28;20050;-64
2023/08/17 00:04:00;;;;;;;1590.25;999.90;;;27.40;99.90;;;;;;5032944;28;20451;-64
2023/08/17 00:06:27;;;;;;;1594.82;999.90;;;27.40;99.90;;;;;;5033173;28;20029;-64
2023/08/17 00:08:53;;;;;;;1576.13;999.90;;;27.40;99.90;;;;;;5033132;28;20018;-64
2023/08/17 00:11:20;;;;;;;1562.85;999.90;;;27.40;99.90;;;;;;5033133;28;20074;-64
2023/08/17 00:13:46;;;;;;;1582.38;999.90;;;27.40;99.90;;;;;;5033091;28;20028;-64
2023/08/17 00:16:13;;;;;;;1557.97;999.90;;;27.40;99.90;;;;;;5032936;28;20029;-64
2023/08/17 00:18:40;;;;;;;1576.53;999.90;;;27.40;99.90;;;;;;5032861;28;20395;-64
2023/08/17 00:21:25;;;;;;;1556.60;999.90;;;27.30;99.90;;;;;;5030120;28;20036;-64
2023/08/17 00:23:51;;;;;;;1581.70;999.90;;;27.40;99.90;;;;;;5031624;28;20491;-68
2023/08/17 00:26:18;;;;;;;1592.22;999.90;;;27.40;99.90;;;;;;5031937;28;20040;-64
2023/08/17 00:28:44;;;;;;;1579.60;999.90;;;27.40;99.90;;;;;;5031615;28;20104;-64
2023/08/17 00:31:11;;;;;;;1592.63;999.90;;;27.40;99.90;;;;;;5032789;28;20474;-62
2023/08/17 00:33:38;;;;;;;1558.80;999.90;;;27.40;99.90;;;;;;5032836;28;20076;-65
2023/08/17 00:36:05;;;;;;;1603.97;999.90;;;27.40;99.90;;;;;;5032432;28;20447;-65
2023/08/17 00:38:31;;;;;;;1577.47;999.90;;;27.40;99.90;;;;;;5032930;28;20036;-65
2023/08/17 00:40:58;;;;;;;1581.30;999.90;;;27.40;99.90;;;;;;5032464;28;20014;-65
2023/08/17 00:43:24;;;;;;;1399.07;999.90;;;27.40;99.90;;;;;;5032232;28;20033;-65
2023/08/17 00:45:51;;;;;;;1576.35;999.90;;;27.40;99.90;;;;;;5036036;28;20044;-65
2023/08/17 00:48:18;;;;;;;1307.03;999.90;;;27.40;99.90;;;;;;5036487;28;20013;-65
2023/08/17 00:50:47;;;;;;;1546.85;999.90;;;27.50;99.90;;;;;;5036681;28;20083;-65
2023/08/17 00:53:15;;;;;;;1014.30;913.55;;;27.50;99.90;;;;;;5036507;28;20037;-65
2023/08/17 00:55:43;;;;;;;1085.10;977.85;;;27.50;99.90;;;;;;5030972;28;20475;-65
2023/08/17 00:58:09;;;;;;;1521.88;999.90;;;27.50;99.90;;;;;;5036560;28;20029;-65
2023/08/17 01:00:36;;;;;;;1506.30;999.90;;;27.50;99.90;;;;;;5036430;28;20383;-64
2023/08/17 01:03:03;;;;;;;1527.25;999.90;;;27.50;99.90;;;;;;5036246;28;20041;-65
2023/08/17 01:05:32;;;;;;;1478.40;999.90;;;27.60;99.90;;;;;;5036386;28;20349;-65
2023/08/17 01:07:59;;;;;;;1502.68;999.90;;;27.60;99.90;;;;;;5034295;28;20021;-66
2023/08/17 01:10:46;;;;;;;1453.55;999.90;;;27.60;99.90;;;;;;5035839;28;20060;-66
2023/08/17 01:13:21;;;;;;;1527.13;999.90;;;27.70;99.90;;;;;;5033153;28;20061;-65
2023/08/17 01:15:53;;;;;;;1532.47;999.90;;;27.80;99.90;;;;;;5033561;28;20103;-67
2023/08/17 01:18:28;;;;;;;1514.93;999.90;;;27.80;99.90;;;;;;5028567;28;20029;-67
2023/08/17 01:20:55;;;;;;;1542.50;999.90;;;27.90;99.90;;;;;;5034493;28;20059;-65
2023/08/17 01:23:22;;;;;;;1579.03;999.90;;;28.00;99.90;;;;;;5033627;28;20021;-67
2023/08/17 01:25:49;;;;;;;1545.93;999.90;;;28.00;99.90;;;;;;5035729;28;20025;-65
2023/08/17 01:28:16;;;;;;;1572.20;999.90;;;28.00;99.90;;;;;;5032995;28;20440;-66
2023/08/17 01:30:47;;;;;;;1535.85;999.90;;;28.10;99.90;;;;;;5019221;28;20030;-67
2023/08/17 01:33:23;;;;;;;1568.40;999.90;;;28.20;99.90;;;;;;5031356;28;20056;-67
2023/08/17 01:35:57;;;;;;;1561.18;999.90;;;28.30;99.90;;;;;;5029441;28;20512;-67
2023/08/17 01:38:25;;;;;;;1537.68;999.90;;;28.40;99.90;;;;;;5036078;28;20510;-65
2023/08/17 01:40:53;;;;;;;1559.25;999.90;;;28.50;99.90;;;;;;5036049;28;20033;-66
2023/08/17 01:43:20;;;;;;;1545.93;999.90;;;28.50;99.90;;;;;;5035870;28;20041;-65
2023/08/17 01:45:47;;;;;;;1507.35;999.90;;;28.50;99.90;;;;;;5036161;28;20491;-65
2023/08/17 01:48:14;;;;;;;1514.82;999.90;;;28.60;99.90;;;;;;5035168;28;20494;-65
2023/08/17 01:50:40;;;;;;;1550.88;999.90;;;28.60;99.90;;;;;;5035683;28;20026;-66
2023/08/17 01:53:08;;;;;;;1564.63;999.90;;;28.60;99.90;;;;;;5035801;28;20080;-65
2023/08/17 01:55:35;;;;;;;1583.78;999.90;;;28.60;99.90;;;;;;5034984;28;20377;-65
2023/08/17 01:58:02;;;;;;;1539.53;999.90;;;28.70;99.90;;;;;;5035674;28;20451;-63
2023/08/17 02:00:28;;;;;;;1521.20;999.90;;;28.80;99.90;;;;;;5035565;28;20029;-64
2023/08/17 02:02:55;;;;;;;1542.32;999.90;;;28.90;99.90;;;;;;5035252;28;20028;-66
2023/08/17 02:05:21;;;;;;;1544.60;999.90;;;28.90;99.90;;;;;;5035377;28;20042;-66
2023/08/17 02:07:48;;;;;;;1534.63;999.90;;;29.00;99.90;;;;;;5034980;28;20387;-65
2023/08/17 02:10:14;;;;;;;1532.45;999.90;;;29.00;99.90;;;;;;5035350;28;20021;-66
2023/08/17 02:12:41;;;;;;;1539.75;999.90;;;29.10;99.90;;;;;;5035467;28;20061;-66
2023/08/17 02:15:08;;;;;;;1537.88;999.90;;;29.10;99.90;;;;;;5035263;28;20030;-65
2023/08/17 02:17:35;;;;;;;1539.93;999.90;;;29.00;99.90;;;;;;5035372;28;20029;-66
2023/08/17 02:20:03;;;;;;;1538.07;999.90;;;29.10;99.90;;;;;;5034533;28;20029;-68
2023/08/17 02:22:30;;;;;;;1525.97;999.90;;;29.10;99.90;;;;;;5034965;28;20030;-65
2023/08/17 02:24:56;;;;;;;1552.63;999.90;;;29.20;99.90;;;;;;5034552;28;20034;-64
2023/08/17 02:27:23;;;;;;;1554.63;999.90;;;29.20;99.90;;;;;;5034933;28;20014;-65
2023/08/17 02:29:50;;;;;;;1542.35;999.90;;;29.20;99.90;;;;;;5034356;28;20033;-66
2023/08/17 02:32:16;;;;;;;1519.03;999.90;;;29.20;99.90;;;;;;5034444;28;20040;-64
2023/08/17 02:34:43;;;;;;;1548.60;999.90;;;29.20;99.90;;;;;;5034723;28;20022;-64
2023/08/17 02:37:09;;;;;;;1556.53;999.90;;;29.20;99.90;;;;;;5034723;28;20045;-65
2023/08/17 02:39:36;;;;;;;1525.35;999.90;;;29.30;99.90;;;;;;5034751;28;20033;-64
2023/08/17 02:42:02;;;;;;;1544.55;999.90;;;29.40;99.90;;;;;;5034613;28;20026;-65
2023/08/17 02:44:29;;;;;;;1551.20;999.90;;;29.40;99.90;;;;;;5034591;28;20100;-66
2023/08/17 02:46:56;;;;;;;1555.68;999.90;;;29.50;99.90;;;;;;5034213;28;20060;-65
2023/08/17 02:49:22;;;;;;;1527.57;999.90;;;29.50;99.90;;;;;;5034548;28;20415;-64
2023/08/17 02:51:49;;;;;;;1524.35;999.90;;;29.50;99.90;;;;;;5034450;28;20540;-65
2023/08/17 02:54:15;;;;;;;1557.75;999.90;;;29.60;99.90;;;;;;5034425;28;20033;-65
2023/08/17 02:56:42;;;;;;;1550.00;999.90;;;29.60;99.90;;;;;;5034245;28;20025;-64
2023/08/17 02:59:08;;;;;;;1566.93;999.90;;;29.60;99.90;;;;;;5034341;28;20040;-63
2023/08/17 03:01:35;;;;;;;1525.78;999.90;;;29.70;99.90;;;;;;5034287;28;20021;-65
2023/08/17 03:04:02;;;;;;;1538.30;999.90;;;29.70;99.90;;;;;;5033647;28;20392;-67
2023/08/17 03:06:28;;;;;;;1518.30;999.90;;;29.70;99.90;;;;;;5034308;28;20495;-65
2023/08/17 03:08:55;;;;;;;1529.97;999.90;;;29.80;99.90;;;;;;5033169;28;20029;-67
2023/08/17 03:11:21;;;;;;;1502.50;999.90;;;29.80;99.90;;;;;;5034015;28;20026;-66
2023/08/17 03:13:48;;;;;;;1511.90;999.90;;;29.80;99.90;;;;;;5033954;28;20486;-66
2023/08/17 03:16:17;;;;;;;1521.72;999.90;;;29.90;99.90;;;;;;5033935;28;20040;-66
2023/08/17 03:18:44;;;;;;;1525.25;999.90;;;30.00;99.90;;;;;;5033904;28;20056;-66
2023/08/17 03:21:10;;;;;;;1526.82;999.90;;;30.10;99.90;;;;;;5034008;28;20037;-70
2023/08/17 03:23:37;;;;;;;1466.53;999.90;;;30.10;99.90;;;;;;5033619;28;20020;-70
2023/08/17 03:26:03;;;;;;;1497.07;999.90;;;30.20;99.90;;;;;;5033968;28;20071;-65
2023/08/17 03:28:30;;;;;;;1294.45;999.90;;;30.20;99.90;;;;;;5034213;28;20025;-65
2023/08/17 03:30:57;;;;;;;1368.00;999.90;;;30.20;99.90;;;;;;5033894;28;20472;-66
2023/08/17 03:33:23;;;;;;;1513.22;999.90;;;30.20;99.90;;;;;;5033711;28;20104;-65
2023/08/17 03:35:50;;;;;;;1551.18;999.90;;;30.10;99.90;;;;;;5033685;28;20025;-65
2023/08/17 03:38:16;;;;;;;1347.03;999.90;;;30.10;99.90;;;;;;5033674;28;20120;-66
2023/08/17 03:40:43;;;;;;;1474.05;999.90;;;30.20;99.90;;;;;;5033733;28;20411;-66
2023/08/17 03:43:09;;;;;;;1405.78;999.90;;;30.30;99.90;;;;;;5033522;28;20029;-67
2023/08/17 03:45:36;;;;;;;1515.03;999.90;;;30.40;99.90;;;;;;5033787;28;20037;-67
2023/08/17 03:48:04;;;;;;;1537.28;999.90;;;30.50;99.90;;;;;;5033666;28;20044;-66
2023/08/17 03:50:30;;;;;;;1483.65;999.90;;;30.70;99.90;;;;;;5033399;28;20080;-70
2023/08/17 03:52:57;;;;;;;1469.85;999.90;;;30.70;99.90;;;;;;5033131;28;20057;-69
2023/08/17 03:55:23;;;;;;;1545.80;999.90;;;30.70;99.90;;;;;;5029863;28;20021;-68
2023/08/17 03:57:50;;;;;;;1540.68;999.90;;;30.80;99.90;;;;;;5013682;28;20022;-67
2023/08/17 04:00:16;;;;;;;1526.15;999.90;;;30.90;99.90;;;;;;5013645;28;20034;-66
2023/08/17 04:02:43;;;;;;;1561.05;999.90;;;30.90;99.90;;;;;;5025632;28;20025;-65
2023/08/17 04:05:10;;;;;;;1568.18;999.90;;;30.90;99.90;;;;;;5033295;28;20479;-67
2023/08/17 04:07:37;;;;;;;1565.30;999.90;;;30.90;99.90;;;;;;5033453;28;20026;-67
2023/08/17 04:10:07;;;;;;;1576.32;999.90;;;31.00;99.90;;;;;;5033419;28;20411;-69
2023/08/17 04:12:33;;;;;;;1575.05;999.90;;;31.10;99.90;;;;;;5032989;28;20471;-65
2023/08/17 04:15:00;;;;;;;1570.13;999.90;;;31.20;99.90;;;;;;5032752;28;20538;-71
2023/08/17 04:17:27;;;;;;;1569.80;999.90;;;31.30;99.90;;;;;;5032966;28;20033;-68
2023/08/17 04:19:53;;;;;;;1546.65;999.90;;;31.40;99.90;;;;;;5032619;28;20100;-67
2023/08/17 04:22:20;;;;;;;1554.07;999.90;;;31.50;99.90;;;;;;5032538;28;20392;-68
2023/08/17 04:24:46;;;;;;;1555.43;999.90;;;31.60;99.90;;;;;;5030029;28;20021;-67
2023/08/17 04:27:14;;;;;;;1551.10;999.90;;;31.60;99.90;;;;;;5032521;28;20017;-65
2023/08/17 04:29:40;;;;;;;1533.28;999.90;;;31.50;99.90;;;;;;5032618;28;20032;-67
2023/08/17 04:32:07;;;;;;;1537.43;999.90;;;31.40;99.90;;;;;;5029992;28;20045;-66
2023/08/17 04:34:33;;;;;;;1540.22;999.90;;;31.50;99.90;;;;;;5032233;28;20045;-67
2023/08/17 04:37:00;;;;;;;1525.78;999.90;;;31.60;99.90;;;;;;5032105;28;20038;-69
2023/08/17 04:39:26;;;;;;;1558.90;999.90;;;31.70;99.90;;;;;;5030179;28;20017;-66
2023/08/17 04:41:53;;;;;;;1546.43;999.90;;;31.70;99.90;;;;;;5032261;28;20033;-65
2023/08/17 04:44:19;;;;;;;1545.22;999.90;;;31.70;99.90;;;;;;5032639;28;20041;-66
2023/08/17 04:46:46;;;;;;;1544.15;999.90;;;31.80;99.90;;;;;;5018566;28;20119;-65
2023/08/17 04:49:12;;;;;;;1539.97;999.90;;;31.90;99.90;;;;;;5015841;28;20361;-68
2023/08/17 04:51:39;;;;;;;1549.68;999.90;;;32.00;99.90;;;;;;5033044;28;20036;-67
2023/08/17 04:54:05;;;;;;;1536.28;999.90;;;32.00;99.90;;;;;;5032958;28;20490;-69
2023/08/17 04:56:32;;;;;;;1530.32;999.90;;;32.10;99.90;;;;;;5032185;28;20030;-66
2023/08/17 04:58:58;;;;;;;1543.93;999.90;;;32.20;99.90;;;;;;5033154;28;20083;-64
2023/08/17 05:01:25;;;;;;;1519.57;999.90;;;32.20;99.90;;;;;;5033018;28;20025;-65
2023/08/17 05:03:51;;;;;;;1535.60;999.90;;;32.30;99.90;;;;;;5032820;28;20021;-64
2023/08/17 05:06:18;;;;;;;1553.60;999.90;;;32.30;99.90;;;;;;5032620;28;20076;-66
2023/08/17 05:08:44;;;;;;;1537.03;999.90;;;32.20;99.90;;;;;;5032472;28;20476;-65
2023/08/17 05:11:11;;;;;;;1526.50;999.90;;;32.10;99.90;;;;;;5032818;28;20040;-66
2023/08/17 05:13:38;;;;;;;1527.82;999.90;;;32.10;99.90;;;;;;5032524;28;20029;-65
2023/08/17 05:16:05;;;;;;;1540.32;999.90;;;32.00;99.90;;;;;;5032409;28;20034;-66
2023/08/17 05:18:31;;;;;;;1519.22;999.90;;;32.00;99.90;;;;;;5032592;28;20049;-67
2023/08/17 05:20:58;;;;;;;1518.55;999.90;;;31.90;99.90;;;;;;5032575;28;20384;-64
2023/08/17 05:23:24;;;;;;;1530.60;999.90;;;31.90;99.90;;;;;;5032669;28;20044;-66
2023/08/17 05:25:51;;;;;;;1523.55;999.90;;;31.90;99.90;;;;;;5032660;28;20049;-65
2023/08/17 05:28:18;;;;;;;1511.25;999.90;;;31.90;99.90;;;;;;5032490;28;20531;-66
2023/08/17 05:30:44;;;;;;;1492.78;999.90;;;32.00;99.90;;;;;;5031810;28;20045;-65
2023/08/17 05:33:11;;;;;;;1502.20;999.90;;;32.10;99.90;;;;;;5035309;28;20446;-67
2023/08/17 05:35:37;;;;;;;1510.90;999.90;;;32.20;99.90;;;;;;5034833;28;20380;-65
2023/08/17 05:38:04;;;;;;;1551.75;999.90;;;32.30;99.90;;;;;;5035032;28;20061;-67
2023/08/17 05:40:32;;;;;;;1538.95;999.90;;;32.40;99.90;;;;;;5035226;28;20400;-69
2023/08/17 05:42:58;;;;;;;1532.55;999.90;;;32.60;99.90;;;;;;5034978;28;20018;-68
2023/08/17 05:45:25;;;;;;;1524.13;999.90;;;32.60;99.90;;;;;;5035331;28;20056;-68
2023/08/17 05:47:53;;;;;;;1536.95;999.90;;;32.80;99.90;;;;;;5035819;28;20114;-66
2023/08/17 05:50:19;;;;;;;1569.82;999.90;;;32.70;99.90;;;;;;5035661;28;20022;-66
2023/08/17 05:52:46;;;;;;;1400.20;999.90;;;32.60;99.90;;;;;;5035977;28;20044;-66
2023/08/17 05:55:13;;;;;;;1094.97;987.60;;;32.60;99.90;;;;;;5017947;28;20108;-66
2023/08/17 05:57:39;;;;;;;1051.90;948.22;;;32.50;99.90;;;;;;5035596;28;20128;-67
2023/08/17 06:00:08;;;;;;;1102.22;993.40;;;32.40;99.90;;;;;;5035592;28;20029;-64
2023/08/17 06:02:35;;;;;;;1107.18;996.25;;;32.40;99.90;;;;;;5035221;28;20029;-65
2023/08/17 06:05:01;;;;;;;1049.00;945.53;;;32.40;99.90;;;;;;5035532;28;20024;-66
2023/08/17 06:07:28;;;;;;;998.22;900.60;;;32.40;99.90;;;;;;5035528;28;20043;-65
2023/08/17 06:09:54;;;;;;;878.63;792.75;;;32.30;99.90;;;;;;5035371;28;20071;-65
2023/08/17 06:12:21;;;;;;;802.53;724.70;;;32.30;99.90;;;;;;5033703;28;20095;-65
2023/08/17 06:14:48;;;;;;;821.20;741.53;;;32.30;99.90;;;;;;5016595;28;20083;-66
2023/08/17 06:17:14;;;;;;;789.45;713.83;;;32.30;99.90;;;;;;5015455;28;20123;-66
2023/08/17 06:19:41;;;;;;;569.92;512.33;;;32.30;99.90;;;;;;5015623;28;20158;-67
2023/08/17 06:22:08;;;;;;;585.47;526.80;;;32.20;99.90;;;;;;5015562;28;20064;-65
2023/08/17 06:24:34;;;;;;;693.83;626.00;;;32.20;99.90;;;;;;5020192;28;20484;-66
2023/08/17 06:27:01;;;;;;;682.30;615.30;;;32.20;99.90;;;;;;5035056;28;20036;-65
2023/08/17 06:29:27;;;;;;;667.35;601.85;;;32.30;99.90;;;;;;5035107;28;20102;-66
2023/08/17 06:31:55;;;;;;;668.60;602.70;;;32.30;99.90;;;;;;5034965;28;20052;-69
2023/08/17 06:34:21;;;;;;;672.05;605.75;;;32.30;99.90;;;;;;5035058;28;20025;-65
2023/08/17 06:36:58;;;;;;;678.67;612.42;;;32.30;99.90;;;;;;5034796;28;20075;-67
2023/08/17 06:39:25;;;;;;;694.78;626.63;;;32.30;99.90;;;;;;5035057;28;20104;-67
2023/08/17 06:41:51;;;;;;;721.90;651.35;;;32.30;99.90;;;;;;5034572;28;20053;-69
2023/08/17 06:44:18;;;;;;;707.92;638.35;;;32.30;99.90;;;;;;5034843;28;20101;-68
2023/08/17 06:46:45;;;;;;;645.78;581.85;;;32.40;99.90;;;;;;5034825;28;20021;-66
2023/08/17 06:49:12;;;;;;;906.78;817.85;;;32.50;99.90;;;;;;5028259;28;20100;-71
2023/08/17 06:51:39;;;;;;;1335.97;999.90;;;32.60;99.90;;;;;;5016095;28;20451;-69
2023/08/17 06:54:09;;;;;;;992.35;894.40;;;32.70;99.90;;;;;;5014810;28;20104;-66
2023/08/17 06:56:35;;;;;;;1050.05;943.55;;;32.80;99.90;;;;;;5014809;28;20048;-67
2023/08/17 06:59:02;;;;;;;1412.78;999.90;;;32.90;99.90;;;;;;5026294;28;20028;-67
2023/08/17 07:01:29;;;;;;;1454.50;999.90;;;32.90;99.90;;;;;;5028897;28;20057;-66
2023/08/17 07:03:56;;;;;;;1088.95;981.28;;;33.00;99.90;;;;;;5032136;28;20026;-66
2023/08/17 07:06:24;;;;;;;726.17;655.53;;;33.10;99.90;;;;;;5034114;28;20029;-67
2023/08/17 07:08:52;;;;;;;826.67;745.70;;;33.10;99.90;;;;;;5034096;28;20486;-68
2023/08/17 07:11:19;;;;;;;622.00;560.10;;;33.10;99.90;;;;;;5032546;28;20033;-68
2023/08/17 07:13:45;;;;;;;567.22;510.67;;;33.10;99.90;;;;;;5026269;28;20018;-69
2023/08/17 07:16:12;;;;;;;519.92;466.92;;;33.00;99.90;;;;;;5033619;28;20045;-69
2023/08/17 07:18:38;;;;;;;524.00;470.90;;;32.90;99.90;;;;;;5032905;28;20092;-67
2023/08/17 07:21:05;;;;;;;564.17;506.88;;;32.90;99.90;;;;;;5026805;28;20033;-66
2023/08/17 07:23:32;;;;;;;553.28;496.85;;;32.80;99.90;;;;;;5025943;28;20051;-67
2023/08/17 07:25:59;;;;;;;529.72;475.85;;;32.80;99.90;;;;;;5033663;28;20030;-72
2023/08/17 07:28:25;;;;;;;513.45;460.15;;;32.80;99.90;;;;;;5034179;28;20033;-69
2023/08/17 07:30:51;;;;;;;474.05;425.02;;;32.80;99.90;;;;;;5034379;28;20510;-68
2023/08/17 07:33:18;;;;;;;453.33;406.13;;;32.80;99.90;;;;;;5033956;28;20029;-66
2023/08/17 07:35:45;;;;;;;483.92;434.83;;;32.70;99.90;;;;;;5033785;28;20105;-66
2023/08/17 07:38:12;;;;;;;506.77;455.15;;;32.80;99.90;;;;;;5033544;28;20084;-66
2023/08/17 07:40:38;;;;;;;509.17;456.50;;;32.80;99.90;;;;;;5033920;28;20018;-68
2023/08/17 07:43:05;;;;;;;544.53;489.20;;;32.90;99.90;;;;;;5033300;28;20029;-65
2023/08/17 07:45:31;;;;;;;591.38;532.20;;;32.90;99.90;;;;;;5033127;28;20029;-67
2023/08/17 07:47:58;;;;;;;603.90;543.95;;;32.90;99.90;;;;;;5033218;28;20469;-67
2023/08/17 07:50:24;;;;;;;638.72;575.78;;;32.90;99.90;;;;;;5033005;28;20456;-67
2023/08/17 07:52:51;;;;;;;583.28;524.75;;;32.90;99.90;;;;;;5033416;28;20055;-67
2023/08/17 07:55:17;;;;;;;567.35;510.42;;;33.00;99.90;;;;;;5033093;28;20024;-66
2023/08/17 07:57:44;;;;;;;574.03;516.45;;;33.10;99.90;;;;;;5033415;28;20022;-66
2023/08/17 08:00:11;;;;;;;533.85;479.60;;;33.10;99.90;;;;;;5033476;28;20025;-67
2023/08/17 08:02:37;;;;;;;504.52;452.85;;;33.20;99.90;;;;;;5033316;28;20033;-67
2023/08/17 08:05:04;;;;;;;497.60;446.75;;;33.20;99.90;;;;;;5033237;28;20492;-67
2023/08/17 08:07:31;;;;;;;478.27;429.60;;;33.30;99.90;;;;;;5033285;28;20061;-67
2023/08/17 08:09:57;;;;;;;478.48;429.08;;;33.40;99.90;;;;;;5033309;28;20105;-67
2023/08/17 08:12:24;;;;;;;423.25;379.50;;;33.50;99.90;;;;;;5033192;28;20494;-66
2023/08/17 08:14:51;;;;;;;394.33;354.73;;;33.60;99.90;;;;;;5033205;28;20061;-66
2023/08/17 08:17:19;;;;;;;413.40;371.70;;;33.70;99.90;;;;;;5033104;28;20100;-66
2023/08/17 08:19:45;;;;;;;377.98;340.75;;;33.70;99.90;;;;;;5032925;28;20033;-66
2023/08/17 08:22:12;;;;;;;407.38;365.70;;;33.80;99.90;;;;;;5033014;28;20025;-66
2023/08/17 08:24:41;;;;;;;381.20;343.30;;;33.80;99.90;;;;;;5033159;28;20021;-67
2023/08/17 08:27:07;;;;;;;382.42;343.63;;;33.70;99.90;;;;;;5032816;28;20026;-68
2023/08/17 08:29:34;;;;;;;384.77;345.55;;;33.70;99.90;;;;;;5032987;28;20665;-66
2023/08/17 08:32:02;;;;;;;394.10;354.50;;;33.60;99.90;;;;;;5033158;28;20039;-65
2023/08/17 08:34:29;;;;;;;421.10;377.70;;;33.50;99.90;;;;;;5026590;28;20498;-67
2023/08/17 08:36:55;;;;;;;439.25;394.23;;;33.40;99.90;;;;;;5032873;28;20045;-67
2023/08/17 08:39:22;;;;;;;413.65;371.38;;;33.30;99.90;;;;;;5033059;28;20025;-67
2023/08/17 08:41:49;;;;;;;413.05;370.67;;;33.20;99.90;;;;;;5032848;28;20468;-66
2023/08/17 08:44:15;;;;;;;398.35;357.90;;;33.20;99.90;;;;;;5033026;28;20396;-67
2023/08/17 08:46:45;;;;;;;381.05;342.45;;;33.10;99.90;;;;;;5033038;28;20026;-67
2023/08/17 08:49:13;;;;;;;382.40;343.85;;;33.10;99.90;;;;;;5032765;28;20550;-67
2023/08/17 08:51:44;;;;;;;409.45;367.65;;;33.00;99.90;;;;;;5032990;28;20097;-67
2023/08/17 08:54:16;;;;;;;422.83;379.03;;;32.90;99.90;;;;;;5032809;28;20228;-67
2023/08/17 08:56:46;;;;;;;509.88;456.33;;;32.80;99.90;;;;;;5032563;28;20253;-66
2023/08/17 08:59:13;;;;;;;472.92;423.70;;;32.80;99.90;;;;;;5032786;28;20026;-67
2023/08/17 09:01:40;;;;;;;417.73;374.20;;;32.80;99.90;;;;;;5032454;28;20083;-67
2023/08/17 09:04:07;;;;;;;420.98;376.88;;;32.80;99.90;;;;;;5032603;28;20496;-67
2023/08/17 09:06:34;;;;;;;408.73;366.70;;;32.80;99.90;;;;;;5033954;28;20057;-67
2023/08/17 09:09:02;;;;;;;387.92;348.70;;;32.80;99.90;;;;;;5036471;28;20025;-67
2023/08/17 09:11:30;;;;;;;411.90;369.38;;;32.80;99.90;;;;;;5036634;28;20412;-67
2023/08/17 09:13:56;;;;;;;385.70;346.90;;;32.80;99.90;;;;;;5036356;28;20395;-66
2023/08/17 09:16:23;;;;;;;438.60;392.73;;;32.80;99.90;;;;;;5036379;28;20026;-67
2023/08/17 09:18:49;;;;;;;1127.15;999.90;;;32.80;99.90;;;;;;5036179;28;20056;-66
2023/08/17 09:21:25;;;;;;;455.63;407.52;;;32.80;99.90;;;;;;5036317;28;20096;-65
2023/08/17 09:23:54;;;;;;;445.23;397.80;;;32.80;99.90;;;;;;5036229;28;20033;-65
2023/08/17 09:26:23;;;;;;;462.80;413.85;;;32.80;99.90;;;;;;5036219;28;20030;-65
2023/08/17 09:28:54;;;;;;;400.52;357.95;;;32.80;99.90;;;;;;5036156;28;20021;-66
2023/08/17 09:31:21;;;;;;;317.27;285.25;;;32.70;99.90;;;;;;5036060;28;20025;-66
2023/08/17 09:33:51;;;;;;;309.00;278.10;;;32.70;99.90;;;;;;5036049;28;20476;-67
2023/08/17 09:36:27;;;;;;;305.77;275.27;;;32.80;99.90;;;;;;5035957;28;20033;-67
2023/08/17 09:38:55;;;;;;;276.77;250.27;;;32.80;99.90;;;;;;5035840;28;20026;-67
2023/08/17 09:41:21;;;;;;;266.77;240.98;;;32.80;99.90;;;;;;5035851;28;20491;-67
2023/08/17 09:43:48;;;;;;;260.10;235.57;;;32.70;99.90;;;;;;5035942;28;20380;-67
2023/08/17 09:46:15;;;;;;;202.80;183.27;;;32.70;99.90;;;;;;5035766;28;20400;-69
2023/08/17 09:48:46;;;;;;;172.30;156.30;;;32.70;99.90;;;;;;5035919;28;20025;-68
2023/08/17 09:51:16;;;;;;;157.73;142.43;;;32.70;99.90;;;;;;5035771;28;20096;-69
2023/08/17 09:53:43;;;;;;;165.93;149.93;;;32.70;99.90;;;;;;5035788;28;20030;-66
2023/08/17 09:56:10;;;;;;;159.93;145.02;;;32.70;99.90;;;;;;5035951;28;20021;-67
2023/08/17 09:58:39;;;;;;;149.68;136.30;;;32.70;99.90;;;;;;5035339;28;20060;-67
2023/08/17 10:01:07;;;;;;;113.45;102.38;;;32.60;99.90;;;;;;5035604;28;20021;-67
2023/08/17 10:03:34;;;;;;;128.25;115.47;;;32.60;99.90;;;;;;5035513;28;20025;-67
2023/08/17 10:06:07;;;;;;;145.15;132.30;;;32.60;99.90;;;;;;5035285;28;20029;-67
2023/08/17 10:08:45;;;;;;;149.48;134.85;;;32.60;99.90;;;;;;5035427;28;20090;-67
2023/08/17 10:11:15;;;;;;;136.93;124.53;;;32.70;99.90;;;;;;5035440;28;20025;-67
2023/08/17 10:13:48;;;;;;;145.38;132.20;;;32.60;99.90;;;;;;5035453;28;20366;-67
2023/08/17 10:16:21;;;;;;;115.05;103.90;;;32.60;99.90;;;;;;5035311;28;20025;-67
2023/08/17 10:19:10;;;;;;;137.75;124.57;;;32.60;99.90;;;;;;5034681;28;20506;-67
2023/08/17 10:21:44;;;;;;;114.07;102.88;;;32.60;99.90;;;;;;5035268;28;20034;-67
2023/08/17 10:24:12;;;;;;;128.02;116.38;;;32.60;99.90;;;;;;5035062;28;20052;-67
2023/08/17 10:26:38;;;;;;;104.00;93.10;;;32.60;99.90;;;;;;5035160;28;20357;-67
2023/08/17 10:29:06;;;;;;;117.93;106.20;;;32.60;99.90;;;;;;5035111;28;20495;-67
2023/08/17 10:31:35;;;;;;;96.78;87.60;;;32.60;99.90;;;;;;5035021;28;20056;-67
2023/08/17 10:34:02;;;;;;;111.30;100.03;;;32.60;99.90;;;;;;5034964;28;20049;-69
2023/08/17 10:36:32;;;;;;;105.10;94.60;;;32.50;99.90;;;;;;5034774;28;20515;-69
2023/08/17 10:39:18;;;;;;;89.13;79.70;;;32.50;99.90;;;;;;5035057;28;20029;-68
2023/08/17 10:41:55;;;;;;;112.85;101.22;;;32.40;99.90;;;;;;5034670;28;20029;-67
2023/08/17 10:44:44;;;;;;;150.75;135.82;;;32.40;99.90;;;;;;5034771;28;20160;-69
2023/08/17 10:47:23;;;;;;;134.68;122.47;;;32.30;99.90;;;;;;5034623;28;20057;-67
2023/08/17 10:49:55;;;;;;;125.53;113.43;;;32.20;99.90;;;;;;5034791;28;20017;-67
2023/08/17 10:52:30;;;;;;;;;;;32.20;99.90;;;;;;5034959;28;20026;-67
2023/08/17 10:54:59;;;;;;;132.13;119.82;;;32.10;99.90;;;;;;5034576;28;19905;-67
2023/08/17 10:57:38;;;;;;;111.18;101.20;;;32.10;99.90;;;;;;5034466;28;20063;-67
2023/08/17 11:00:27;;;;;;;137.15;124.32;;;32.10;99.90;;;;;;5034782;28;20037;-67
2023/08/17 11:02:54;;;;;;;164.40;148.57;;;32.10;99.90;;;;;;5034158;28;20030;-67
2023/08/17 11:05:42;;;;;;;151.90;137.10;;;32.10;99.90;;;;;;5034517;28;20109;-67
2023/08/17 11:08:20;;;;;;;171.32;154.63;;;32.10;99.90;;;;;;5034322;28;20030;-67
2023/08/17 11:11:09;;;;;;;157.05;140.32;;;32.00;99.90;;;;;;5034429;28;20025;-67
2023/08/17 11:13:38;;;;;;;194.35;172.98;;;32.00;99.90;;;;;;5034104;28;20021;-67
2023/08/17 11:16:06;;;;;;;190.50;169.20;;;32.00;99.90;;;;;;5034804;28;20034;-67
2023/08/17 11:18:34;;;;;;;160.75;143.23;;;32.00;99.90;;;;;;5034174;28;20030;-67
2023/08/17 11:21:03;;;;;;;98.45;87.97;;;32.00;99.90;;;;;;5034090;28;20580;-69
2023/08/17 11:23:31;;;;;;;80.50;66.97;;;31.90;99.90;;;;;;5033949;28;20033;-66
2023/08/17 11:25:57;;;;;;;134.65;121.53;;;31.90;99.90;;;;;;5033996;28;20022;-67
2023/08/17 11:28:24;;;;;;;147.23;132.32;;;31.80;99.90;;;;;;5033531;28;20029;-66
2023/08/17 11:31:00;;;;;;;172.65;155.90;;;31.80;99.90;;;;;;5033731;28;20017;-66
2023/08/17 11:33:28;;;;;;;211.70;191.43;;;31.80;99.90;;;;;;5033732;28;20029;-66
2023/08/17 11:35:56;;;;;;;159.68;144.35;;;31.80;99.90;;;;;;5033848;28;20476;-66
2023/08/17 11:38:29;;;;;;;185.10;166.82;;;31.70;99.90;;;;;;5033524;28;20077;-66
2023/08/17 11:40:58;;;;;;;178.10;161.48;;;31.70;99.90;;;;;;5033660;28;20369;-67
2023/08/17 11:43:26;;;;;;;226.93;205.32;;;31.60;99.90;;;;;;5033623;28;20052;-66
2023/08/17 11:45:52;;;;;;;338.05;304.05;;;31.50;99.90;;;;;;5032958;28;20014;-66
2023/08/17 11:48:20;;;;;;;449.08;401.45;;;31.50;99.90;;;;;;5032429;28;20491;-66
2023/08/17 11:50:46;;;;;;;513.70;460.13;;;31.50;99.90;;;;;;5032362;28;20021;-66
2023/08/17 11:53:13;;;;;;;635.28;571.20;;;31.40;99.90;;;;;;5032433;28;20472;-66
2023/08/17 11:55:39;;;;;;;1562.57;999.90;;;31.40;99.90;;;;;;5032260;28;20068;-66
2023/08/17 11:58:07;;;;;;;394.80;353.83;;;31.40;99.90;;;;;;5032216;28;20032;-66
2023/08/17 12:00:42;;;;;;;1281.20;999.90;;;31.40;99.90;;;;;;5032329;28;20074;-65
2023/08/17 12:03:08;;;;;;;1600.22;999.90;;;31.30;99.90;;;;;;5029476;28;20041;-66
2023/08/17 12:05:36;;;;;;;412.20;368.00;;;31.30;99.90;;;;;;5032682;28;20032;-66
2023/08/17 12:08:03;;;;;;;366.05;329.30;;;31.10;99.90;;;;;;5032865;28;20056;-67